sensor_id;sensor_type;location;lat;lon;timestamp;pressure;altitude;pressure_sealevel;temperature;humidity
33280;BME280;20403;43.114;12.434;2023-03-25T00:01:37;99123.81;;;11.94;100.00
33280;BME280;20403;43.114;12.434;2023-03-25T00:04:02;99127.69;;;11.91;100.00
33280;BME280;20403;43.114;12.434;2023-03-25T00:06:31;99119.72;;;11.86;100.00
33280;BME280;20403;43.114;12.434;2023-03-25T00:08:58;99124.84;;;11.81;100.00
33280;BME280;20403;43.114;12.434;2023-03-25T00:11:24;99122.91;;;11.76;100.00
33280;BME280;20403;43.114;12.434;2023-03-25T00:13:50;99126.44;;;11.59;100.00
33280;BME280;20403;43.114;12.434;2023-03-25T00:16:16;99128.47;;;11.56;100.00
33280;BME280;20403;43.114;12.434;2023-03-25T00:18:43;99122.69;;;11.54;100.00
33280;BME280;20403;43.114;12.434;2023-03-25T00:21:09;99117.00;;;11.57;100.00
33280;BME280;20403;43.114;12.434;2023-03-25T00:23:37;99110.66;;;11.53;100.00
33280;BME280;20403;43.114;12.434;2023-03-25T00:26:02;99108.38;;;11.57;100.00
33280;BME280;20403;43.114;12.434;2023-03-25T00:28:31;99114.06;;;11.54;100.00
33280;BME280;20403;43.114;12.434;2023-03-25T00:31:02;99113.69;;;11.39;100.00
33280;BME280;20403;43.114;12.434;2023-03-25T00:33:28;99108.03;;;11.30;100.00
33280;BME280;20403;43.114;12.434;2023-03-25T00:35:54;99109.63;;;11.31;100.00
33280;BME280;20403;43.114;12.434;2023-03-25T00:38:30;99116.50;;;11.13;100.00
33280;BME280;20403;43.114;12.434;2023-03-25T00:41:13;99122.53;;;11.14;100.00
33280;BME280;20403;43.114;12.434;2023-03-25T00:43:42;99119.56;;;11.10;100.00
33280;BME280;20403;43.114;12.434;2023-03-25T00:46:08;99114.94;;;11.12;100.00
33280;BME280;20403;43.114;12.434;2023-03-25T00:48:33;99111.88;;;11.15;100.00
33280;BME280;20403;43.114;12.434;2023-03-25T00:50:59;99114.81;;;11.19;100.00
33280;BME280;20403;43.114;12.434;2023-03-25T00:53:32;99117.78;;;11.23;100.00
33280;BME280;20403;43.114;12.434;2023-03-25T00:55:57;99116.41;;;11.32;100.00
33280;BME280;20403;43.114;12.434;2023-03-25T00:58:22;99115.88;;;11.42;100.00
33280;BME280;20403;43.114;12.434;2023-03-25T01:00:48;99105.19;;;11.55;100.00
33280;BME280;20403;43.114;12.434;2023-03-25T01:03:14;99099.53;;;11.58;100.00
33280;BME280;20403;43.114;12.434;2023-03-25T01:05:39;99099.84;;;11.73;100.00
33280;BME280;20403;43.114;12.434;2023-03-25T01:08:06;99092.94;;;11.79;100.00
33280;BME280;20403;43.114;12.434;2023-03-25T01:10:34;99089.28;;;11.80;100.00
33280;BME280;20403;43.114;12.434;2023-03-25T01:13:00;99099.28;;;11.83;100.00
33280;BME280;20403;43.114;12.434;2023-03-25T01:15:26;99090.88;;;11.81;100.00
33280;BME280;20403;43.114;12.434;2023-03-25T01:17:52;99092.81;;;11.74;100.00
33280;BME280;20403;43.114;12.434;2023-03-25T01:20:17;99098.25;;;11.72;100.00
33280;BME280;20403;43.114;12.434;2023-03-25T01:22:43;99093.16;;;11.66;100.00
33280;BME280;20403;43.114;12.434;2023-03-25T01:25:08;99090.44;;;11.61;100.00
33280;BME280;20403;43.114;12.434;2023-03-25T01:27:34;99084.53;;;11.53;100.00
33280;BME280;20403;43.114;12.434;2023-03-25T01:30:00;99085.34;;;11.42;100.00
33280;BME280;20403;43.114;12.434;2023-03-25T01:32:27;99083.72;;;11.41;100.00
33280;BME280;20403;43.114;12.434;2023-03-25T01:34:53;99077.41;;;11.37;100.00
33280;BME280;20403;43.114;12.434;2023-03-25T01:37:18;99086.91;;;11.31;100.00
33280;BME280;20403;43.114;12.434;2023-03-25T01:39:44;99094.53;;;11.33;100.00
33280;BME280;20403;43.114;12.434;2023-03-25T01:42:10;99091.34;;;11.31;100.00
33280;BME280;20403;43.114;12.434;2023-03-25T01:47:02;99094.34;;;10.92;100.00
33280;BME280;20403;43.114;12.434;2023-03-25T01:49:33;99095.09;;;10.81;100.00
33280;BME280;20403;43.114;12.434;2023-03-25T01:52:08;99097.78;;;10.63;100.00
33280;BME280;20403;43.114;12.434;2023-03-25T01:54:35;99100.28;;;10.69;100.00
33280;BME280;20403;43.114;12.434;2023-03-25T01:57:04;99103.00;;;10.63;100.00
33280;BME280;20403;43.114;12.434;2023-03-25T01:59:30;99100.13;;;10.52;100.00
33280;BME280;20403;43.114;12.434;2023-03-25T02:02:00;99089.66;;;10.41;100.00
33280;BME280;20403;43.114;12.434;2023-03-25T02:04:54;99085.69;;;10.38;100.00
33280;BME280;20403;43.114;12.434;2023-03-25T02:07:26;99075.47;;;10.37;100.00
33280;BME280;20403;43.114;12.434;2023-03-25T02:09:57;99077.94;;;10.32;100.00
33280;BME280;20403;43.114;12.434;2023-03-25T02:12:23;99074.31;;;10.33;100.00
33280;BME280;20403;43.114;12.434;2023-03-25T02:14:48;99072.94;;;10.30;100.00
33280;BME280;20403;43.114;12.434;2023-03-25T02:17:41;99068.31;;;10.32;100.00
33280;BME280;20403;43.114;12.434;2023-03-25T02:36:53;99057.97;;;10.56;100.00
33280;BME280;20403;43.114;12.434;2023-03-25T02:42:10;99052.00;;;10.67;100.00
33280;BME280;20403;43.114;12.434;2023-03-25T02:44:46;99042.00;;;10.64;100.00
33280;BME280;20403;43.114;12.434;2023-03-25T02:47:17;99044.75;;;10.69;100.00
33280;BME280;20403;43.114;12.434;2023-03-25T02:49:57;99039.75;;;10.67;100.00
33280;BME280;20403;43.114;12.434;2023-03-25T02:52:31;99037.88;;;10.86;100.00
33280;BME280;20403;43.114;12.434;2023-03-25T02:55:00;99038.66;;;10.99;100.00
33280;BME280;20403;43.114;12.434;2023-03-25T02:57:30;99039.47;;;10.99;100.00
33280;BME280;20403;43.114;12.434;2023-03-25T02:59:58;99047.28;;;11.23;100.00
33280;BME280;20403;43.114;12.434;2023-03-25T03:02:26;99049.59;;;11.19;100.00
33280;BME280;20403;43.114;12.434;2023-03-25T03:04:56;99054.91;;;11.24;100.00
33280;BME280;20403;43.114;12.434;2023-03-25T03:10:15;99057.19;;;11.44;100.00
33280;BME280;20403;43.114;12.434;2023-03-25T03:15:50;99054.88;;;11.60;100.00
33280;BME280;20403;43.114;12.434;2023-03-25T03:21:27;99061.81;;;11.66;100.00
33280;BME280;20403;43.114;12.434;2023-03-25T03:24:03;99054.09;;;11.71;100.00
33280;BME280;20403;43.114;12.434;2023-03-25T03:29:28;99035.66;;;11.77;100.00
33280;BME280;20403;43.114;12.434;2023-03-25T03:32:17;99046.91;;;11.90;100.00
33280;BME280;20403;43.114;12.434;2023-03-25T03:34:48;99039.50;;;11.87;100.00
33280;BME280;20403;43.114;12.434;2023-03-25T03:37:26;99035.53;;;11.84;100.00
33280;BME280;20403;43.114;12.434;2023-03-25T03:39:56;99046.56;;;11.86;100.00
33280;BME280;20403;43.114;12.434;2023-03-25T03:42:29;99043.16;;;11.97;100.00
33280;BME280;20403;43.114;12.434;2023-03-25T03:45:02;99038.13;;;12.08;100.00
33280;BME280;20403;43.114;12.434;2023-03-25T03:47:35;99038.59;;;12.05;100.00
33280;BME280;20403;43.114;12.434;2023-03-25T03:50:09;99036.84;;;12.10;100.00
33280;BME280;20403;43.114;12.434;2023-03-25T03:52:42;99032.19;;;12.12;100.00
33280;BME280;20403;43.114;12.434;2023-03-25T03:55:13;99035.50;;;12.08;100.00
33280;BME280;20403;43.114;12.434;2023-03-25T03:57:56;99035.16;;;12.16;100.00
33280;BME280;20403;43.114;12.434;2023-03-25T04:00:27;99037.19;;;12.14;100.00
33280;BME280;20403;43.114;12.434;2023-03-25T04:02:59;99029.16;;;12.04;100.00
33280;BME280;20403;43.114;12.434;2023-03-25T04:05:29;99036.16;;;12.15;100.00
33280;BME280;20403;43.114;12.434;2023-03-25T04:08:07;99033.69;;;12.08;100.00
33280;BME280;20403;43.114;12.434;2023-03-25T04:10:42;99038.63;;;12.22;100.00
33280;BME280;20403;43.114;12.434;2023-03-25T04:13:12;99041.44;;;12.32;100.00
33280;BME280;20403;43.114;12.434;2023-03-25T04:15:39;99047.41;;;12.44;100.00
33280;BME280;20403;43.114;12.434;2023-03-25T04:18:05;99046.16;;;12.47;100.00
33280;BME280;20403;43.114;12.434;2023-03-25T04:20:32;99048.53;;;12.48;100.00
33280;BME280;20403;43.114;12.434;2023-03-25T04:23:01;99057.88;;;12.44;100.00
33280;BME280;20403;43.114;12.434;2023-03-25T04:25:29;99056.13;;;12.50;100.00
33280;BME280;20403;43.114;12.434;2023-03-25T04:27:57;99053.63;;;12.55;100.00
33280;BME280;20403;43.114;12.434;2023-03-25T04:30:24;99055.19;;;12.56;100.00
33280;BME280;20403;43.114;12.434;2023-03-25T04:32:50;99057.50;;;12.52;100.00
33280;BME280;20403;43.114;12.434;2023-03-25T04:35:17;99071.03;;;12.49;100.00
33280;BME280;20403;43.114;12.434;2023-03-25T04:37:44;99071.03;;;12.49;100.00
33280;BME280;20403;43.114;12.434;2023-03-25T04:40:11;99081.47;;;12.32;100.00
33280;BME280;20403;43.114;12.434;2023-03-25T04:42:40;99085.50;;;12.40;100.00
33280;BME280;20403;43.114;12.434;2023-03-25T04:45:08;99090.28;;;12.43;100.00
33280;BME280;20403;43.114;12.434;2023-03-25T04:47:39;99100.59;;;12.50;100.00
33280;BME280;20403;43.114;12.434;2023-03-25T04:50:24;99098.38;;;12.42;100.00
33280;BME280;20403;43.114;12.434;2023-03-25T04:52:51;99104.34;;;12.54;100.00
33280;BME280;20403;43.114;12.434;2023-03-25T04:55:17;99102.75;;;12.53;100.00
33280;BME280;20403;43.114;12.434;2023-03-25T04:57:47;99116.75;;;12.47;100.00
33280;BME280;20403;43.114;12.434;2023-03-25T05:00:14;99111.88;;;12.50;100.00
33280;BME280;20403;43.114;12.434;2023-03-25T05:02:45;99121.19;;;12.46;100.00
33280;BME280;20403;43.114;12.434;2023-03-25T05:05:16;99123.59;;;12.48;100.00
33280;BME280;20403;43.114;12.434;2023-03-25T05:07:45;99123.59;;;12.48;100.00
33280;BME280;20403;43.114;12.434;2023-03-25T05:10:13;99133.72;;;12.44;100.00
33280;BME280;20403;43.114;12.434;2023-03-25T05:12:39;99136.28;;;12.56;100.00
33280;BME280;20403;43.114;12.434;2023-03-25T05:15:04;99134.00;;;12.59;100.00
33280;BME280;20403;43.114;12.434;2023-03-25T05:17:30;99140.50;;;12.57;100.00
33280;BME280;20403;43.114;12.434;2023-03-25T05:19:56;99135.16;;;12.52;100.00
33280;BME280;20403;43.114;12.434;2023-03-25T05:22:22;99132.53;;;12.52;100.00
33280;BME280;20403;43.114;12.434;2023-03-25T05:24:47;99134.16;;;12.53;100.00
33280;BME280;20403;43.114;12.434;2023-03-25T05:27:12;99130.41;;;12.49;100.00
33280;BME280;20403;43.114;12.434;2023-03-25T05:29:38;99126.75;;;12.50;100.00
33280;BME280;20403;43.114;12.434;2023-03-25T05:32:03;99133.34;;;12.52;100.00
33280;BME280;20403;43.114;12.434;2023-03-25T05:34:29;99140.16;;;12.53;100.00
33280;BME280;20403;43.114;12.434;2023-03-25T05:36:55;99140.94;;;12.54;100.00
33280;BME280;20403;43.114;12.434;2023-03-25T05:39:20;99136.63;;;12.59;100.00
33280;BME280;20403;43.114;12.434;2023-03-25T05:41:46;99141.28;;;12.57;100.00
33280;BME280;20403;43.114;12.434;2023-03-25T05:44:11;99142.56;;;12.55;100.00
33280;BME280;20403;43.114;12.434;2023-03-25T05:46:39;99149.94;;;12.58;100.00
33280;BME280;20403;43.114;12.434;2023-03-25T05:49:05;99144.59;;;12.53;100.00
33280;BME280;20403;43.114;12.434;2023-03-25T05:51:32;99141.44;;;12.51;100.00
33280;BME280;20403;43.114;12.434;2023-03-25T05:54:02;99141.53;;;12.56;100.00
33280;BME280;20403;43.114;12.434;2023-03-25T05:56:28;99140.13;;;12.36;100.00
33280;BME280;20403;43.114;12.434;2023-03-25T05:58:54;99131.66;;;12.46;100.00
33280;BME280;20403;43.114;12.434;2023-03-25T06:01:20;99130.06;;;12.45;100.00
33280;BME280;20403;43.114;12.434;2023-03-25T06:03:46;99122.22;;;12.45;100.00
33280;BME280;20403;43.114;12.434;2023-03-25T06:06:13;99115.19;;;12.46;100.00
33280;BME280;20403;43.114;12.434;2023-03-25T06:08:48;99106.78;;;12.44;100.00
33280;BME280;20403;43.114;12.434;2023-03-25T06:11:18;99109.03;;;12.40;100.00
33280;BME280;20403;43.114;12.434;2023-03-25T06:13:45;99108.63;;;12.31;100.00
33280;BME280;20403;43.114;12.434;2023-03-25T06:16:20;99101.47;;;12.27;100.00
33280;BME280;20403;43.114;12.434;2023-03-25T06:18:47;99097.72;;;12.34;100.00
33280;BME280;20403;43.114;12.434;2023-03-25T06:21:23;99080.75;;;12.37;100.00
33280;BME280;20403;43.114;12.434;2023-03-25T06:23:48;99080.59;;;12.72;100.00
33280;BME280;20403;43.114;12.434;2023-03-25T06:26:18;99079.03;;;13.05;100.00
33280;BME280;20403;43.114;12.434;2023-03-25T06:28:44;99085.56;;;13.36;100.00
33280;BME280;20403;43.114;12.434;2023-03-25T06:31:15;99084.09;;;13.62;100.00
33280;BME280;20403;43.114;12.434;2023-03-25T06:33:42;99089.38;;;13.84;100.00
33280;BME280;20403;43.114;12.434;2023-03-25T06:36:08;99092.06;;;14.39;100.00
33280;BME280;20403;43.114;12.434;2023-03-25T06:38:36;99097.91;;;14.46;100.00
33280;BME280;20403;43.114;12.434;2023-03-25T06:41:02;99103.31;;;14.34;100.00
33280;BME280;20403;43.114;12.434;2023-03-25T06:43:27;99099.59;;;14.30;100.00
33280;BME280;20403;43.114;12.434;2023-03-25T06:45:52;99102.22;;;14.08;100.00
33280;BME280;20403;43.114;12.434;2023-03-25T06:48:18;99104.53;;;14.04;100.00
33280;BME280;20403;43.114;12.434;2023-03-25T06:50:43;99108.69;;;14.22;100.00
33280;BME280;20403;43.114;12.434;2023-03-25T06:53:10;99097.88;;;14.41;100.00
33280;BME280;20403;43.114;12.434;2023-03-25T06:55:36;99088.91;;;14.86;100.00
33280;BME280;20403;43.114;12.434;2023-03-25T06:58:01;99090.25;;;15.26;100.00
33280;BME280;20403;43.114;12.434;2023-03-25T07:00:26;99082.69;;;15.77;100.00
33280;BME280;20403;43.114;12.434;2023-03-25T07:02:53;99087.03;;;15.61;100.00
33280;BME280;20403;43.114;12.434;2023-03-25T07:05:18;99090.94;;;16.01;100.00
33280;BME280;20403;43.114;12.434;2023-03-25T07:07:44;99089.13;;;16.12;100.00
33280;BME280;20403;43.114;12.434;2023-03-25T07:10:13;99080.53;;;16.47;100.00
33280;BME280;20403;43.114;12.434;2023-03-25T07:12:39;99082.38;;;16.36;100.00
33280;BME280;20403;43.114;12.434;2023-03-25T07:15:05;99086.63;;;16.58;100.00
33280;BME280;20403;43.114;12.434;2023-03-25T07:17:31;99085.78;;;16.32;100.00
33280;BME280;20403;43.114;12.434;2023-03-25T07:19:56;99096.63;;;16.46;100.00
33280;BME280;20403;43.114;12.434;2023-03-25T07:22:21;99101.63;;;16.63;100.00
33280;BME280;20403;43.114;12.434;2023-03-25T07:24:47;99096.03;;;16.33;100.00
33280;BME280;20403;43.114;12.434;2023-03-25T07:27:13;99102.38;;;16.32;100.00
33280;BME280;20403;43.114;12.434;2023-03-25T07:29:40;99101.81;;;16.25;100.00
33280;BME280;20403;43.114;12.434;2023-03-25T07:32:05;99095.06;;;16.65;100.00
33280;BME280;20403;43.114;12.434;2023-03-25T07:34:31;99103.81;;;15.98;100.00
33280;BME280;20403;43.114;12.434;2023-03-25T07:36:56;99101.84;;;16.35;100.00
33280;BME280;20403;43.114;12.434;2023-03-25T07:39:22;99110.59;;;16.62;100.00
33280;BME280;20403;43.114;12.434;2023-03-25T07:41:50;99104.31;;;16.78;100.00
33280;BME280;20403;43.114;12.434;2023-03-25T07:44:15;99105.63;;;16.96;100.00
33280;BME280;20403;43.114;12.434;2023-03-25T07:46:40;99103.03;;;17.06;100.00
33280;BME280;20403;43.114;12.434;2023-03-25T07:49:06;99103.78;;;17.27;100.00
33280;BME280;20403;43.114;12.434;2023-03-25T07:51:31;99093.69;;;17.65;100.00
33280;BME280;20403;43.114;12.434;2023-03-25T07:53:59;99101.97;;;17.07;100.00
33280;BME280;20403;43.114;12.434;2023-03-25T07:56:24;99102.22;;;16.90;100.00
33280;BME280;20403;43.114;12.434;2023-03-25T07:58:50;99100.38;;;16.80;100.00
33280;BME280;20403;43.114;12.434;2023-03-25T08:01:15;99095.72;;;16.14;100.00
33280;BME280;20403;43.114;12.434;2023-03-25T08:03:41;99095.78;;;16.25;100.00
33280;BME280;20403;43.114;12.434;2023-03-25T08:06:06;99093.97;;;16.46;100.00
33280;BME280;20403;43.114;12.434;2023-03-25T08:08:32;99087.66;;;16.42;100.00
33280;BME280;20403;43.114;12.434;2023-03-25T08:10:58;99094.53;;;16.58;100.00
33280;BME280;20403;43.114;12.434;2023-03-25T08:13:24;99092.91;;;16.52;100.00
33280;BME280;20403;43.114;12.434;2023-03-25T08:15:50;99099.00;;;16.52;100.00
33280;BME280;20403;43.114;12.434;2023-03-25T08:18:16;99106.38;;;16.66;100.00
33280;BME280;20403;43.114;12.434;2023-03-25T08:20:41;99096.38;;;16.57;100.00
33280;BME280;20403;43.114;12.434;2023-03-25T08:23:06;99097.47;;;16.97;100.00
33280;BME280;20403;43.114;12.434;2023-03-25T08:25:37;99114.34;;;16.81;100.00
33280;BME280;20403;43.114;12.434;2023-03-25T08:28:03;99094.81;;;16.67;100.00
33280;BME280;20403;43.114;12.434;2023-03-25T08:30:29;99108.00;;;16.82;100.00
33280;BME280;20403;43.114;12.434;2023-03-25T08:32:54;99094.03;;;16.87;100.00
33280;BME280;20403;43.114;12.434;2023-03-25T08:35:21;99094.03;;;17.28;100.00
33280;BME280;20403;43.114;12.434;2023-03-25T08:37:47;99088.84;;;18.08;100.00
33280;BME280;20403;43.114;12.434;2023-03-25T08:40:13;99088.06;;;18.52;100.00
33280;BME280;20403;43.114;12.434;2023-03-25T08:42:41;99091.31;;;18.44;100.00
33280;BME280;20403;43.114;12.434;2023-03-25T08:45:07;99082.50;;;18.09;100.00
33280;BME280;20403;43.114;12.434;2023-03-25T08:47:33;99080.44;;;18.01;100.00
33280;BME280;20403;43.114;12.434;2023-03-25T08:49:58;99084.47;;;17.73;100.00
33280;BME280;20403;43.114;12.434;2023-03-25T08:52:24;99080.03;;;17.48;100.00
33280;BME280;20403;43.114;12.434;2023-03-25T08:54:49;99067.91;;;17.47;100.00
33280;BME280;20403;43.114;12.434;2023-03-25T08:57:15;99062.16;;;17.19;100.00
33280;BME280;20403;43.114;12.434;2023-03-25T08:59:40;99056.84;;;17.39;100.00
33280;BME280;20403;43.114;12.434;2023-03-25T09:02:06;99062.03;;;17.75;100.00
33280;BME280;20403;43.114;12.434;2023-03-25T09:04:31;99064.97;;;18.29;100.00
33280;BME280;20403;43.114;12.434;2023-03-25T09:06:57;99073.94;;;17.68;100.00
33280;BME280;20403;43.114;12.434;2023-03-25T09:09:22;99071.66;;;16.99;100.00
33280;BME280;20403;43.114;12.434;2023-03-25T09:11:48;99073.75;;;16.77;100.00
33280;BME280;20403;43.114;12.434;2023-03-25T09:14:13;99074.78;;;16.66;100.00
33280;BME280;20403;43.114;12.434;2023-03-25T09:16:39;99071.38;;;16.60;100.00
33280;BME280;20403;43.114;12.434;2023-03-25T09:19:05;99079.00;;;16.77;100.00
33280;BME280;20403;43.114;12.434;2023-03-25T09:21:30;99075.53;;;17.53;100.00
33280;BME280;20403;43.114;12.434;2023-03-25T09:23:56;99078.13;;;18.39;100.00
33280;BME280;20403;43.114;12.434;2023-03-25T09:26:21;99080.41;;;18.95;100.00
33280;BME280;20403;43.114;12.434;2023-03-25T09:28:47;99077.81;;;18.85;100.00
33280;BME280;20403;43.114;12.434;2023-03-25T09:31:12;99068.41;;;18.29;100.00
33280;BME280;20403;43.114;12.434;2023-03-25T09:33:39;99077.25;;;18.04;100.00
33280;BME280;20403;43.114;12.434;2023-03-25T09:36:04;99080.81;;;18.29;100.00
33280;BME280;20403;43.114;12.434;2023-03-25T09:38:31;99077.25;;;18.54;100.00
33280;BME280;20403;43.114;12.434;2023-03-25T09:40:56;99072.69;;;18.59;100.00
33280;BME280;20403;43.114;12.434;2023-03-25T09:46:00;99067.97;;;18.56;100.00
33280;BME280;20403;43.114;12.434;2023-03-25T09:50:56;99064.13;;;19.89;100.00
33280;BME280;20403;43.114;12.434;2023-03-25T09:53:33;99051.69;;;20.28;100.00
33280;BME280;20403;43.114;12.434;2023-03-25T09:56:00;99054.50;;;19.75;100.00
33280;BME280;20403;43.114;12.434;2023-03-25T09:58:35;99062.22;;;19.18;100.00
33280;BME280;20403;43.114;12.434;2023-03-25T10:03:47;99051.53;;;19.57;100.00
33280;BME280;20403;43.114;12.434;2023-03-25T10:06:19;99049.75;;;19.23;100.00
33280;BME280;20403;43.114;12.434;2023-03-25T10:09:09;99050.81;;;18.93;100.00
33280;BME280;20403;43.114;12.434;2023-03-25T10:17:40;99030.97;;;21.47;75.43
33280;BME280;20403;43.114;12.434;2023-03-25T10:25:20;99025.50;;;20.07;71.11
33280;BME280;20403;43.114;12.434;2023-03-25T10:27:50;99030.63;;;19.80;73.13
33280;BME280;20403;43.114;12.434;2023-03-25T10:30:17;99033.25;;;20.04;77.32
33280;BME280;20403;43.114;12.434;2023-03-25T10:32:49;99023.50;;;19.80;75.90
33280;BME280;20403;43.114;12.434;2023-03-25T10:35:23;99038.44;;;19.71;79.69
33280;BME280;20403;43.114;12.434;2023-03-25T10:37:52;99034.13;;;19.75;73.28
33280;BME280;20403;43.114;12.434;2023-03-25T10:40:25;99027.00;;;19.76;77.49
33280;BME280;20403;43.114;12.434;2023-03-25T10:45:25;99025.13;;;19.76;75.17
33280;BME280;20403;43.114;12.434;2023-03-25T10:47:56;99035.56;;;19.38;80.42
33280;BME280;20403;43.114;12.434;2023-03-25T10:50:26;99029.31;;;19.29;84.80
33280;BME280;20403;43.114;12.434;2023-03-25T10:52:52;99038.84;;;19.01;90.68
33280;BME280;20403;43.114;12.434;2023-03-25T10:55:27;99039.78;;;18.86;88.56
33280;BME280;20403;43.114;12.434;2023-03-25T10:57:57;99039.28;;;19.37;87.97
33280;BME280;20403;43.114;12.434;2023-03-25T11:00:22;99028.06;;;20.12;76.58
33280;BME280;20403;43.114;12.434;2023-03-25T11:02:50;99023.75;;;19.55;77.66
33280;BME280;20403;43.114;12.434;2023-03-25T11:05:19;99015.66;;;19.22;77.96
33280;BME280;20403;43.114;12.434;2023-03-25T11:07:59;99011.00;;;19.38;78.44
33280;BME280;20403;43.114;12.434;2023-03-25T11:10:31;98998.94;;;20.12;72.23
33280;BME280;20403;43.114;12.434;2023-03-25T11:12:59;99004.47;;;19.97;73.05
33280;BME280;20403;43.114;12.434;2023-03-25T11:15:33;99005.53;;;19.77;71.24
33280;BME280;20403;43.114;12.434;2023-03-25T11:20:59;99006.59;;;19.52;68.90
33280;BME280;20403;43.114;12.434;2023-03-25T11:23:32;99006.78;;;19.37;62.25
33280;BME280;20403;43.114;12.434;2023-03-25T11:26:04;99004.31;;;20.45;61.81
33280;BME280;20403;43.114;12.434;2023-03-25T11:28:42;98997.00;;;20.89;52.66
33280;BME280;20403;43.114;12.434;2023-03-25T11:33:36;98988.28;;;22.08;52.34
33280;BME280;20403;43.114;12.434;2023-03-25T11:38:45;98986.50;;;22.62;48.02
33280;BME280;20403;43.114;12.434;2023-03-25T11:41:12;98987.09;;;22.14;46.82
33280;BME280;20403;43.114;12.434;2023-03-25T11:43:39;98991.09;;;21.89;47.64
33280;BME280;20403;43.114;12.434;2023-03-25T11:46:08;98997.81;;;21.86;48.09
33280;BME280;20403;43.114;12.434;2023-03-25T11:48:36;98998.19;;;22.16;49.87
33280;BME280;20403;43.114;12.434;2023-03-25T11:51:05;98987.75;;;21.83;46.91
33280;BME280;20403;43.114;12.434;2023-03-25T11:53:32;98980.00;;;21.87;46.71
33280;BME280;20403;43.114;12.434;2023-03-25T11:56:07;98972.53;;;21.89;46.44
33280;BME280;20403;43.114;12.434;2023-03-25T11:58:36;98973.63;;;21.74;46.89
33280;BME280;20403;43.114;12.434;2023-03-25T12:01:04;98975.19;;;22.11;47.54
33280;BME280;20403;43.114;12.434;2023-03-25T12:03:32;98976.78;;;22.89;46.84
33280;BME280;20403;43.114;12.434;2023-03-25T12:06:15;98966.94;;;23.29;44.76
33280;BME280;20403;43.114;12.434;2023-03-25T12:14:39;98966.94;;;22.89;44.86
33280;BME280;20403;43.114;12.434;2023-03-25T12:25:01;98929.84;;;22.84;42.42
33280;BME280;20403;43.114;12.434;2023-03-25T12:38:43;98896.13;;;23.94;42.87
33280;BME280;20403;43.114;12.434;2023-03-25T13:05:58;98865.84;;;23.73;38.82
33280;BME280;20403;43.114;12.434;2023-03-25T13:08:31;98868.53;;;23.46;39.79
33280;BME280;20403;43.114;12.434;2023-03-25T13:11:08;98873.41;;;23.62;40.18
33280;BME280;20403;43.114;12.434;2023-03-25T13:13:36;98881.22;;;23.67;39.56
33280;BME280;20403;43.114;12.434;2023-03-25T13:16:12;98871.03;;;23.52;39.36
33280;BME280;20403;43.114;12.434;2023-03-25T13:18:47;98875.56;;;23.25;38.57
33280;BME280;20403;43.114;12.434;2023-03-25T13:21:29;98869.19;;;22.86;39.59
33280;BME280;20403;43.114;12.434;2023-03-25T13:24:23;98874.06;;;22.93;41.19
33280;BME280;20403;43.114;12.434;2023-03-25T13:26:55;98863.50;;;23.27;40.80
33280;BME280;20403;43.114;12.434;2023-03-25T13:29:29;98868.69;;;23.41;40.62
33280;BME280;20403;43.114;12.434;2023-03-25T13:31:58;98873.19;;;23.23;39.78
33280;BME280;20403;43.114;12.434;2023-03-25T13:34:32;98877.75;;;23.23;40.31
33280;BME280;20403;43.114;12.434;2023-03-25T13:37:30;98874.75;;;23.07;41.92
33280;BME280;20403;43.114;12.434;2023-03-25T13:45:18;98865.38;;;23.36;41.04
33280;BME280;20403;43.114;12.434;2023-03-25T13:47:52;98858.53;;;23.43;42.51
33280;BME280;20403;43.114;12.434;2023-03-25T13:50:27;98864.63;;;23.53;41.13
33280;BME280;20403;43.114;12.434;2023-03-25T13:53:01;98850.69;;;23.73;41.41
33280;BME280;20403;43.114;12.434;2023-03-25T13:55:33;98847.06;;;23.52;41.67
33280;BME280;20403;43.114;12.434;2023-03-25T14:01:15;98861.53;;;22.44;42.12
33280;BME280;20403;43.114;12.434;2023-03-25T14:12:42;98825.53;;;22.38;43.35
33280;BME280;20403;43.114;12.434;2023-03-25T14:15:14;98835.09;;;22.17;43.45
33280;BME280;20403;43.114;12.434;2023-03-25T14:17:42;98845.84;;;22.12;43.55
33280;BME280;20403;43.114;12.434;2023-03-25T14:20:16;98826.25;;;22.21;42.99
33280;BME280;20403;43.114;12.434;2023-03-25T14:22:43;98836.72;;;21.95;43.43
33280;BME280;20403;43.114;12.434;2023-03-25T14:25:19;98830.91;;;21.71;44.93
33280;BME280;20403;43.114;12.434;2023-03-25T14:27:48;98822.28;;;21.65;44.72
33280;BME280;20403;43.114;12.434;2023-03-25T14:30:20;98818.59;;;21.97;44.93
33280;BME280;20403;43.114;12.434;2023-03-25T14:32:47;98821.97;;;21.89;45.25
33280;BME280;20403;43.114;12.434;2023-03-25T14:43:02;98803.47;;;22.07;45.40
33280;BME280;20403;43.114;12.434;2023-03-25T14:47:59;98807.22;;;21.74;45.46
33280;BME280;20403;43.114;12.434;2023-03-25T14:52:56;98806.66;;;21.41;45.78
33280;BME280;20403;43.114;12.434;2023-03-25T14:55:26;98809.88;;;21.52;46.38
33280;BME280;20403;43.114;12.434;2023-03-25T14:58:41;98796.03;;;21.41;46.29
33280;BME280;20403;43.114;12.434;2023-03-25T15:01:13;98810.59;;;21.30;46.00
33280;BME280;20403;43.114;12.434;2023-03-25T15:03:42;98812.38;;;21.20;47.10
33280;BME280;20403;43.114;12.434;2023-03-25T15:06:17;98804.00;;;21.27;46.68
33280;BME280;20403;43.114;12.434;2023-03-25T15:08:56;98803.22;;;21.27;46.17
33280;BME280;20403;43.114;12.434;2023-03-25T15:11:26;98807.22;;;21.38;46.89
33280;BME280;20403;43.114;12.434;2023-03-25T15:13:59;98801.53;;;21.45;46.79
33280;BME280;20403;43.114;12.434;2023-03-25T15:21:22;98810.63;;;21.02;45.85